sensor_id;sensor_type;location;lat;lon;timestamp;pressure;altitude;pressure_sealevel;temperature;humidity
75594;BME280;64176;49.156;7.810;2023-07-31T00:01:36;99149.44;;;15.03;89.24
75594;BME280;64176;49.156;7.810;2023-07-31T00:04:20;99146.91;;;14.99;88.92
75594;BME280;64176;49.156;7.810;2023-07-31T00:07:04;99140.97;;;14.90;89.70
75594;BME280;64176;49.156;7.810;2023-07-31T00:09:50;99128.91;;;14.83;88.90
75594;BME280;64176;49.156;7.810;2023-07-31T00:12:44;99146.38;;;14.72;90.39
75594;BME280;64176;49.156;7.810;2023-07-31T00:15:29;99147.09;;;14.86;90.23
75594;BME280;64176;49.156;7.810;2023-07-31T00:18:13;99144.66;;;14.73;90.58
75594;BME280;64176;49.156;7.810;2023-07-31T00:20:57;99141.09;;;14.80;90.42
75594;BME280;64176;49.156;7.810;2023-07-31T00:23:41;99128.41;;;14.55;90.79
75594;BME280;64176;49.156;7.810;2023-07-31T00:26:25;99138.53;;;14.78;90.59
75594;BME280;64176;49.156;7.810;2023-07-31T00:29:09;99134.13;;;14.80;89.50
75594;BME280;64176;49.156;7.810;2023-07-31T00:31:54;99124.94;;;14.56;90.27
75594;BME280;64176;49.156;7.810;2023-07-31T00:34:38;99132.44;;;14.79;90.29
75594;BME280;64176;49.156;7.810;2023-07-31T00:37:22;99125.06;;;14.46;91.19
75594;BME280;64176;49.156;7.810;2023-07-31T00:40:07;99123.78;;;14.79;90.28
75594;BME280;64176;49.156;7.810;2023-07-31T00:42:51;99130.88;;;14.66;89.95
75594;BME280;64176;49.156;7.810;2023-07-31T00:45:40;99129.03;;;14.74;89.47
75594;BME280;64176;49.156;7.810;2023-07-31T00:48:25;99132.53;;;14.72;89.88
75594;BME280;64176;49.156;7.810;2023-07-31T00:51:10;99123.22;;;14.55;89.89
75594;BME280;64176;49.156;7.810;2023-07-31T00:53:54;99124.06;;;14.57;90.46
75594;BME280;64176;49.156;7.810;2023-07-31T00:56:40;99119.59;;;14.69;89.65
75594;BME280;64176;49.156;7.810;2023-07-31T00:59:25;99120.31;;;14.80;89.50
75594;BME280;64176;49.156;7.810;2023-07-31T01:02:12;99117.88;;;14.66;90.38
75594;BME280;64176;49.156;7.810;2023-07-31T01:04:56;99120.75;;;14.46;90.94
75594;BME280;64176;49.156;7.810;2023-07-31T01:10:52;99115.34;;;14.58;90.52
75594;BME280;64176;49.156;7.810;2023-07-31T01:13:39;99112.97;;;14.42;89.87
75594;BME280;64176;49.156;7.810;2023-07-31T01:16:24;99111.06;;;14.57;89.56
75594;BME280;64176;49.156;7.810;2023-07-31T01:19:10;99116.47;;;14.36;90.00
75594;BME280;64176;49.156;7.810;2023-07-31T01:28:12;99112.66;;;14.68;87.22
75594;BME280;64176;49.156;7.810;2023-07-31T01:30:58;99106.78;;;14.50;88.42
75594;BME280;64176;49.156;7.810;2023-07-31T01:33:50;99085.47;;;14.23;89.55
75594;BME280;64176;49.156;7.810;2023-07-31T01:36:36;99092.19;;;14.39;89.78
75594;BME280;64176;49.156;7.810;2023-07-31T01:39:22;99086.06;;;14.46;88.96
75594;BME280;64176;49.156;7.810;2023-07-31T01:42:06;99088.69;;;14.44;88.74
75594;BME280;64176;49.156;7.810;2023-07-31T01:44:51;99088.63;;;14.47;88.14
75594;BME280;64176;49.156;7.810;2023-07-31T01:47:37;99080.88;;;14.46;88.88
75594;BME280;64176;49.156;7.810;2023-07-31T01:50:21;99085.22;;;14.44;88.58
75594;BME280;64176;49.156;7.810;2023-07-31T01:53:05;99075.56;;;14.53;87.67
75594;BME280;64176;49.156;7.810;2023-07-31T01:55:50;99071.47;;;14.33;88.73
75594;BME280;64176;49.156;7.810;2023-07-31T01:58:33;99066.47;;;14.14;89.90
75594;BME280;64176;49.156;7.810;2023-07-31T02:01:17;99066.31;;;14.30;89.02
75594;BME280;64176;49.156;7.810;2023-07-31T02:04:01;99073.97;;;14.39;88.90
75594;BME280;64176;49.156;7.810;2023-07-31T02:06:49;99067.94;;;14.37;89.24
75594;BME280;64176;49.156;7.810;2023-07-31T02:09:33;99072.13;;;14.51;88.40
75594;BME280;64176;49.156;7.810;2023-07-31T02:12:17;99061.66;;;14.56;88.67
75594;BME280;64176;49.156;7.810;2023-07-31T02:15:01;99058.19;;;14.55;87.93
75594;BME280;64176;49.156;7.810;2023-07-31T02:17:48;99060.00;;;14.50;88.33
75594;BME280;64176;49.156;7.810;2023-07-31T02:20:34;99051.44;;;14.44;88.51
75594;BME280;64176;49.156;7.810;2023-07-31T02:23:19;99054.94;;;14.40;88.43
75594;BME280;64176;49.156;7.810;2023-07-31T02:26:04;99048.09;;;14.31;89.18
75594;BME280;64176;49.156;7.810;2023-07-31T02:28:48;99055.88;;;14.33;88.96
75594;BME280;64176;49.156;7.810;2023-07-31T02:31:33;99056.88;;;14.23;89.04
75594;BME280;64176;49.156;7.810;2023-07-31T02:34:16;99066.56;;;14.07;89.84
75594;BME280;64176;49.156;7.810;2023-07-31T02:37:00;99063.06;;;14.11;89.59
75594;BME280;64176;49.156;7.810;2023-07-31T02:39:47;99046.25;;;14.42;88.75
75594;BME280;64176;49.156;7.810;2023-07-31T02:42:31;99046.34;;;14.33;88.93
75594;BME280;64176;49.156;7.810;2023-07-31T02:45:15;99035.13;;;14.28;89.37
75594;BME280;64176;49.156;7.810;2023-07-31T02:48:02;99042.13;;;14.23;89.89
75594;BME280;64176;49.156;7.810;2023-07-31T02:50:47;99044.00;;;14.13;89.54
75594;BME280;64176;49.156;7.810;2023-07-31T02:53:31;99045.66;;;14.16;89.25
75594;BME280;64176;49.156;7.810;2023-07-31T02:56:15;99048.31;;;14.13;90.59
75594;BME280;64176;49.156;7.810;2023-07-31T02:58:59;99042.28;;;14.11;89.75
75594;BME280;64176;49.156;7.810;2023-07-31T03:01:43;99042.78;;;14.42;89.37
75594;BME280;64176;49.156;7.810;2023-07-31T03:04:27;99048.97;;;14.30;88.95
75594;BME280;64176;49.156;7.810;2023-07-31T03:07:11;99042.13;;;14.25;89.47
75594;BME280;64176;49.156;7.810;2023-07-31T03:09:55;99046.38;;;14.30;89.08
75594;BME280;64176;49.156;7.810;2023-07-31T03:12:42;99042.03;;;14.31;90.03
75594;BME280;64176;49.156;7.810;2023-07-31T03:15:26;99037.56;;;14.43;89.22
75594;BME280;64176;49.156;7.810;2023-07-31T03:18:10;99036.88;;;14.26;89.31
75594;BME280;64176;49.156;7.810;2023-07-31T03:20:54;99047.19;;;14.34;90.30
75594;BME280;64176;49.156;7.810;2023-07-31T03:23:38;99039.56;;;14.18;90.28
75594;BME280;64176;49.156;7.810;2023-07-31T03:26:22;99044.78;;;14.18;91.21
75594;BME280;64176;49.156;7.810;2023-07-31T03:29:06;99035.97;;;14.30;90.66
75594;BME280;64176;49.156;7.810;2023-07-31T03:31:51;99033.53;;;14.16;91.29
75594;BME280;64176;49.156;7.810;2023-07-31T03:34:35;99042.03;;;14.29;90.95
75594;BME280;64176;49.156;7.810;2023-07-31T03:37:21;99045.41;;;14.37;90.38
75594;BME280;64176;49.156;7.810;2023-07-31T03:40:06;99041.81;;;14.49;89.44
75594;BME280;64176;49.156;7.810;2023-07-31T03:42:55;99035.75;;;14.48;89.93
75594;BME280;64176;49.156;7.810;2023-07-31T03:45:39;99036.47;;;14.58;88.29
75594;BME280;64176;49.156;7.810;2023-07-31T03:48:23;99031.75;;;14.84;84.78
75594;BME280;64176;49.156;7.810;2023-07-31T03:51:07;99031.84;;;14.80;85.46
75594;BME280;64176;49.156;7.810;2023-07-31T03:53:51;99027.50;;;14.79;84.40
75594;BME280;64176;49.156;7.810;2023-07-31T03:56:35;99030.75;;;14.93;83.05
75594;BME280;64176;49.156;7.810;2023-07-31T03:59:19;99037.78;;;14.86;85.11
75594;BME280;64176;49.156;7.810;2023-07-31T04:02:03;99035.78;;;15.04;81.63
75594;BME280;64176;49.156;7.810;2023-07-31T04:04:47;99030.69;;;14.96;83.40
75594;BME280;64176;49.156;7.810;2023-07-31T04:07:31;99033.63;;;14.75;85.46
75594;BME280;64176;49.156;7.810;2023-07-31T04:10:15;99035.41;;;14.73;85.57
75594;BME280;64176;49.156;7.810;2023-07-31T04:13:00;99028.53;;;14.69;85.81
75594;BME280;64176;49.156;7.810;2023-07-31T04:15:50;99026.75;;;14.71;85.79
75594;BME280;64176;49.156;7.810;2023-07-31T04:18:37;99023.69;;;14.43;87.93
75594;BME280;64176;49.156;7.810;2023-07-31T04:21:22;99022.56;;;14.62;86.64
75594;BME280;64176;49.156;7.810;2023-07-31T04:24:08;99027.03;;;14.52;87.55
75594;BME280;64176;49.156;7.810;2023-07-31T04:26:53;99029.75;;;14.45;87.98
75594;BME280;64176;49.156;7.810;2023-07-31T04:29:39;99036.59;;;14.50;87.79
75594;BME280;64176;49.156;7.810;2023-07-31T04:32:26;99032.25;;;14.49;88.61
75594;BME280;64176;49.156;7.810;2023-07-31T04:35:11;99040.75;;;14.62;87.82
75594;BME280;64176;49.156;7.810;2023-07-31T04:37:54;99035.66;;;14.54;87.95
75594;BME280;64176;49.156;7.810;2023-07-31T04:40:38;99030.59;;;14.45;89.06
75594;BME280;64176;49.156;7.810;2023-07-31T04:43:22;99022.59;;;14.59;87.41
75594;BME280;64176;49.156;7.810;2023-07-31T04:46:06;99013.00;;;14.63;85.36
75594;BME280;64176;49.156;7.810;2023-07-31T04:48:50;99017.47;;;14.53;86.90
75594;BME280;64176;49.156;7.810;2023-07-31T04:51:34;99021.84;;;14.49;87.21
75594;BME280;64176;49.156;7.810;2023-07-31T04:54:18;99026.03;;;14.61;86.51
75594;BME280;64176;49.156;7.810;2023-07-31T04:57:02;99023.25;;;14.73;86.55
75594;BME280;64176;49.156;7.810;2023-07-31T04:59:47;99016.97;;;14.86;85.67
75594;BME280;64176;49.156;7.810;2023-07-31T05:02:31;99011.72;;;14.91;84.85
75594;BME280;64176;49.156;7.810;2023-07-31T05:05:15;99011.38;;;15.11;82.18
75594;BME280;64176;49.156;7.810;2023-07-31T05:08:01;99005.00;;;15.28;81.61
75594;BME280;64176;49.156;7.810;2023-07-31T05:10:45;98996.69;;;15.57;77.98
75594;BME280;64176;49.156;7.810;2023-07-31T05:13:29;98997.22;;;15.75;75.56
75594;BME280;64176;49.156;7.810;2023-07-31T05:16:13;98998.03;;;15.78;76.55
75594;BME280;64176;49.156;7.810;2023-07-31T05:18:57;98995.34;;;15.81;75.70
75594;BME280;64176;49.156;7.810;2023-07-31T05:21:41;98998.25;;;16.09;74.35
75594;BME280;64176;49.156;7.810;2023-07-31T05:24:25;99000.03;;;16.07;74.18
75594;BME280;64176;49.156;7.810;2023-07-31T05:27:09;98999.16;;;16.08;73.73
75594;BME280;64176;49.156;7.810;2023-07-31T05:29:53;98995.72;;;16.06;73.80
75594;BME280;64176;49.156;7.810;2023-07-31T05:32:37;98994.97;;;16.01;73.69
75594;BME280;64176;49.156;7.810;2023-07-31T05:35:21;98991.41;;;16.03;74.23
75594;BME280;64176;49.156;7.810;2023-07-31T05:38:05;98994.81;;;16.07;73.02
75594;BME280;64176;49.156;7.810;2023-07-31T05:40:49;98990.38;;;16.12;73.56
75594;BME280;64176;49.156;7.810;2023-07-31T05:43:35;98982.38;;;16.20;73.79
75594;BME280;64176;49.156;7.810;2023-07-31T05:46:19;98981.28;;;16.30;73.14
75594;BME280;64176;49.156;7.810;2023-07-31T05:49:03;98984.78;;;16.29;73.19
75594;BME280;64176;49.156;7.810;2023-07-31T05:51:47;98987.38;;;16.30;73.14
75594;BME280;64176;49.156;7.810;2023-07-31T05:54:32;98976.13;;;16.27;72.52
75594;BME280;64176;49.156;7.810;2023-07-31T05:57:16;98980.25;;;16.37;72.74
75594;BME280;64176;49.156;7.810;2023-07-31T06:00:00;98990.38;;;16.51;72.94
75594;BME280;64176;49.156;7.810;2023-07-31T06:02:44;98986.13;;;16.47;72.64
75594;BME280;64176;49.156;7.810;2023-07-31T06:05:28;98987.72;;;16.54;72.35
75594;BME280;64176;49.156;7.810;2023-07-31T06:08:13;98991.91;;;16.59;71.99
75594;BME280;64176;49.156;7.810;2023-07-31T06:10:57;98990.16;;;16.60;71.73
75594;BME280;64176;49.156;7.810;2023-07-31T06:13:41;99002.34;;;16.59;71.73
75594;BME280;64176;49.156;7.810;2023-07-31T06:16:25;99003.19;;;16.61;72.27
75594;BME280;64176;49.156;7.810;2023-07-31T06:19:08;98985.97;;;16.54;72.36
75594;BME280;64176;49.156;7.810;2023-07-31T06:21:52;98985.72;;;16.66;71.86
75594;BME280;64176;49.156;7.810;2023-07-31T06:24:36;98975.09;;;16.74;71.57
75594;BME280;64176;49.156;7.810;2023-07-31T06:27:20;98981.19;;;16.73;71.31
75594;BME280;64176;49.156;7.810;2023-07-31T06:30:05;98976.06;;;16.68;71.49
75594;BME280;64176;49.156;7.810;2023-07-31T06:32:50;98973.53;;;16.67;71.79
75594;BME280;64176;49.156;7.810;2023-07-31T06:35:34;98975.06;;;16.76;71.90
75594;BME280;64176;49.156;7.810;2023-07-31T06:38:26;98972.28;;;16.82;71.81
75594;BME280;64176;49.156;7.810;2023-07-31T06:41:11;98974.38;;;17.03;71.39
75594;BME280;64176;49.156;7.810;2023-07-31T06:43:55;98973.69;;;16.96;72.16
75594;BME280;64176;49.156;7.810;2023-07-31T06:46:39;98973.03;;;17.87;67.77
75594;BME280;64176;49.156;7.810;2023-07-31T06:49:23;98967.44;;;17.34;69.31
75594;BME280;64176;49.156;7.810;2023-07-31T06:52:09;98977.09;;;17.97;67.41
75594;BME280;64176;49.156;7.810;2023-07-31T06:55:18;98968.59;;;17.24;69.14
75594;BME280;64176;49.156;7.810;2023-07-31T06:58:02;98958.50;;;17.44;68.97
75594;BME280;64176;49.156;7.810;2023-07-31T07:00:46;98955.47;;;18.48;65.80
75594;BME280;64176;49.156;7.810;2023-07-31T07:03:30;98951.59;;;19.14;63.39
75594;BME280;64176;49.156;7.810;2023-07-31T07:06:14;98959.41;;;18.89;63.18
75594;BME280;64176;49.156;7.810;2023-07-31T07:09:00;98962.19;;;18.84;64.05
75594;BME280;64176;49.156;7.810;2023-07-31T07:11:44;98965.09;;;18.19;65.56
75594;BME280;64176;49.156;7.810;2023-07-31T07:14:28;98964.31;;;18.16;66.87
75594;BME280;64176;49.156;7.810;2023-07-31T07:17:12;98962.09;;;18.32;66.26
75594;BME280;64176;49.156;7.810;2023-07-31T07:19:56;98956.75;;;18.07;66.66
75594;BME280;64176;49.156;7.810;2023-07-31T07:22:40;98945.44;;;18.34;66.56
75594;BME280;64176;49.156;7.810;2023-07-31T07:25:26;98938.38;;;18.66;65.65
75594;BME280;64176;49.156;7.810;2023-07-31T07:28:11;98944.59;;;18.62;66.07
75594;BME280;64176;49.156;7.810;2023-07-31T07:30:55;98948.16;;;18.87;65.14
75594;BME280;64176;49.156;7.810;2023-07-31T07:33:42;98939.63;;;18.80;64.75
75594;BME280;64176;49.156;7.810;2023-07-31T07:36:27;98944.97;;;18.49;67.11
75594;BME280;64176;49.156;7.810;2023-07-31T07:39:11;98943.97;;;18.26;67.21
75594;BME280;64176;49.156;7.810;2023-07-31T07:41:58;98950.66;;;18.34;67.12
75594;BME280;64176;49.156;7.810;2023-07-31T07:44:42;98944.69;;;18.31;66.66
75594;BME280;64176;49.156;7.810;2023-07-31T07:47:26;98944.81;;;18.26;66.87
75594;BME280;64176;49.156;7.810;2023-07-31T07:50:10;98927.97;;;18.35;66.20
75594;BME280;64176;49.156;7.810;2023-07-31T07:52:56;98930.72;;;18.60;65.86
75594;BME280;64176;49.156;7.810;2023-07-31T07:55:40;98927.47;;;18.51;66.12
75594;BME280;64176;49.156;7.810;2023-07-31T07:58:24;98925.94;;;18.44;66.92
75594;BME280;64176;49.156;7.810;2023-07-31T08:01:09;98923.47;;;18.40;66.29
75594;BME280;64176;49.156;7.810;2023-07-31T08:03:52;98923.94;;;18.52;66.50
75594;BME280;64176;49.156;7.810;2023-07-31T08:06:37;98920.91;;;18.38;66.49
75594;BME280;64176;49.156;7.810;2023-07-31T08:09:21;98926.34;;;18.86;66.25
75594;BME280;64176;49.156;7.810;2023-07-31T08:12:06;98924.47;;;18.90;65.60
75594;BME280;64176;49.156;7.810;2023-07-31T08:14:50;98918.44;;;19.13;64.66
75594;BME280;64176;49.156;7.810;2023-07-31T08:17:34;98916.25;;;19.25;64.41
75594;BME280;64176;49.156;7.810;2023-07-31T08:20:18;98905.09;;;19.20;63.12
75594;BME280;64176;49.156;7.810;2023-07-31T08:23:02;98900.34;;;19.07;63.86
75594;BME280;64176;49.156;7.810;2023-07-31T08:25:46;98900.25;;;19.33;63.55
75594;BME280;64176;49.156;7.810;2023-07-31T08:28:30;98888.19;;;19.29;63.20
75594;BME280;64176;49.156;7.810;2023-07-31T08:31:14;98900.50;;;19.52;62.57
75594;BME280;64176;49.156;7.810;2023-07-31T08:34:00;98898.00;;;19.72;62.39
75594;BME280;64176;49.156;7.810;2023-07-31T08:36:45;98905.69;;;19.53;62.12
75594;BME280;64176;49.156;7.810;2023-07-31T08:39:31;98888.41;;;19.71;61.34
75594;BME280;64176;49.156;7.810;2023-07-31T08:42:16;98897.94;;;19.97;61.49
75594;BME280;64176;49.156;7.810;2023-07-31T08:45:01;98899.75;;;20.40;60.08
75594;BME280;64176;49.156;7.810;2023-07-31T08:47:47;98891.69;;;20.45;59.81
75594;BME280;64176;49.156;7.810;2023-07-31T08:50:32;98899.50;;;20.46;59.76
75594;BME280;64176;49.156;7.810;2023-07-31T08:53:16;98884.66;;;20.45;59.38
75594;BME280;64176;49.156;7.810;2023-07-31T08:56:02;98882.63;;;20.30;60.21
75594;BME280;64176;49.156;7.810;2023-07-31T08:58:49;98866.91;;;20.30;59.94
75594;BME280;64176;49.156;7.810;2023-07-31T09:01:38;98862.78;;;20.23;59.85
75594;BME280;64176;49.156;7.810;2023-07-31T09:04:25;98863.47;;;20.06;60.63
75594;BME280;64176;49.156;7.810;2023-07-31T09:07:11;98870.81;;;19.75;60.96
75594;BME280;64176;49.156;7.810;2023-07-31T09:09:57;98859.72;;;19.90;60.84
75594;BME280;64176;49.156;7.810;2023-07-31T09:12:41;98862.34;;;19.90;60.92
75594;BME280;64176;49.156;7.810;2023-07-31T09:15:27;98858.72;;;19.71;61.34
75594;BME280;64176;49.156;7.810;2023-07-31T09:18:12;98864.19;;;19.88;60.97
75594;BME280;64176;49.156;7.810;2023-07-31T09:21:04;98855.75;;;20.02;61.11
75594;BME280;64176;49.156;7.810;2023-07-31T09:23:51;98855.06;;;19.98;60.65
75594;BME280;64176;49.156;7.810;2023-07-31T09:26:37;98854.81;;;20.26;59.90
75594;BME280;64176;49.156;7.810;2023-07-31T09:29:22;98853.09;;;20.47;59.73
75594;BME280;64176;49.156;7.810;2023-07-31T09:32:16;98851.41;;;20.46;58.57
75594;BME280;64176;49.156;7.810;2023-07-31T09:35:00;98844.69;;;20.39;58.84
75594;BME280;64176;49.156;7.810;2023-07-31T09:37:51;98851.09;;;20.53;59.30
75594;BME280;64176;49.156;7.810;2023-07-31T09:40:37;98841.69;;;20.48;58.98
75594;BME280;64176;49.156;7.810;2023-07-31T09:43:22;98851.88;;;20.55;58.39
75594;BME280;64176;49.156;7.810;2023-07-31T09:46:13;98857.38;;;20.49;58.51
75594;BME280;64176;49.156;7.810;2023-07-31T09:49:11;98847.88;;;20.67;58.37
75594;BME280;64176;49.156;7.810;2023-07-31T09:51:55;98835.13;;;20.58;58.36
75594;BME280;64176;49.156;7.810;2023-07-31T09:54:39;98827.91;;;20.43;58.61
75594;BME280;64176;49.156;7.810;2023-07-31T09:57:23;98836.53;;;20.87;58.22
75594;BME280;64176;49.156;7.810;2023-07-31T10:00:10;98831.53;;;20.81;56.91
75594;BME280;64176;49.156;7.810;2023-07-31T10:03:00;98839.75;;;20.93;56.45
75594;BME280;64176;49.156;7.810;2023-07-31T10:05:51;98831.84;;;21.14;56.91
75594;BME280;64176;49.156;7.810;2023-07-31T10:08:37;98823.72;;;20.99;56.23
75594;BME280;64176;49.156;7.810;2023-07-31T10:11:24;98841.34;;;20.97;56.22
75594;BME280;64176;49.156;7.810;2023-07-31T10:14:11;98820.78;;;20.87;55.31
75594;BME280;64176;49.156;7.810;2023-07-31T10:16:58;98818.63;;;20.96;55.25
75594;BME280;64176;49.156;7.810;2023-07-31T10:19:43;98816.59;;;21.61;55.10
75594;BME280;64176;49.156;7.810;2023-07-31T10:22:28;98809.28;;;21.86;53.82
75594;BME280;64176;49.156;7.810;2023-07-31T10:25:15;98804.56;;;21.55;54.79
75594;BME280;64176;49.156;7.810;2023-07-31T10:27:59;98797.16;;;21.26;54.79
75594;BME280;64176;49.156;7.810;2023-07-31T10:30:44;98816.91;;;21.34;55.18
75594;BME280;64176;49.156;7.810;2023-07-31T10:33:29;98808.25;;;21.12;55.14
75594;BME280;64176;49.156;7.810;2023-07-31T10:36:14;98816.22;;;21.11;55.65
75594;BME280;64176;49.156;7.810;2023-07-31T10:39:03;98818.84;;;21.11;55.47
75594;BME280;64176;49.156;7.810;2023-07-31T10:41:47;98813.88;;;21.04;55.81
75594;BME280;64176;49.156;7.810;2023-07-31T10:44:31;98816.63;;;21.22;56.19
75594;BME280;64176;49.156;7.810;2023-07-31T10:47:15;98815.16;;;21.15;55.99
75594;BME280;64176;49.156;7.810;2023-07-31T10:50:21;98796.59;;;21.19;55.87
75594;BME280;64176;49.156;7.810;2023-07-31T10:53:05;98805.66;;;20.92;56.86
75594;BME280;64176;49.156;7.810;2023-07-31T10:55:51;98796.75;;;21.15;56.89
75594;BME280;64176;49.156;7.810;2023-07-31T10:58:38;98793.41;;;21.11;56.39
75594;BME280;64176;49.156;7.810;2023-07-31T11:01:22;98805.69;;;21.11;56.33
75594;BME280;64176;49.156;7.810;2023-07-31T11:04:10;98780.06;;;21.36;55.97
75594;BME280;64176;49.156;7.810;2023-07-31T11:06:59;98787.16;;;21.71;55.21
75594;BME280;64176;49.156;7.810;2023-07-31T11:09:44;98787.78;;;21.76;55.59
75594;BME280;64176;49.156;7.810;2023-07-31T11:12:30;98790.06;;;21.65;54.84
75594;BME280;64176;49.156;7.810;2023-07-31T11:15:15;98779.00;;;21.59;54.10
75594;BME280;64176;49.156;7.810;2023-07-31T11:18:01;98786.47;;;21.49;55.31
75594;BME280;64176;49.156;7.810;2023-07-31T11:20:52;98778.28;;;21.36;55.56
75594;BME280;64176;49.156;7.810;2023-07-31T11:23:39;98779.75;;;21.23;56.31
75594;BME280;64176;49.156;7.810;2023-07-31T11:26:24;98779.69;;;21.25;55.60
75594;BME280;64176;49.156;7.810;2023-07-31T11:29:11;98772.94;;;21.38;56.59
75594;BME280;64176;49.156;7.810;2023-07-31T11:31:55;98766.34;;;21.48;55.38
75594;BME280;64176;49.156;7.810;2023-07-31T11:34:52;98775.28;;;21.25;55.88
75594;BME280;64176;49.156;7.810;2023-07-31T11:37:42;98768.00;;;21.12;56.51
75594;BME280;64176;49.156;7.810;2023-07-31T11:40:29;98769.59;;;21.34;55.75
75594;BME280;64176;49.156;7.810;2023-07-31T11:43:13;98763.75;;;21.65;55.70
75594;BME280;64176;49.156;7.810;2023-07-31T11:46:01;98762.22;;;21.61;55.74
75594;BME280;64176;49.156;7.810;2023-07-31T11:48:47;98768.09;;;21.66;55.76
75594;BME280;64176;49.156;7.810;2023-07-31T11:51:32;98729.31;;;21.53;55.33
75594;BME280;64176;49.156;7.810;2023-07-31T11:54:16;98747.31;;;21.79;55.08
75594;BME280;64176;49.156;7.810;2023-07-31T11:57:01;98745.75;;;21.94;55.33
75594;BME280;64176;49.156;7.810;2023-07-31T11:59:46;98741.56;;;22.08;55.41
75594;BME280;64176;49.156;7.810;2023-07-31T12:02:32;98748.13;;;22.17;55.35
75594;BME280;64176;49.156;7.810;2023-07-31T12:05:17;98748.22;;;22.50;54.99
75594;BME280;64176;49.156;7.810;2023-07-31T12:08:08;98749.03;;;21.99;54.49
75594;BME280;64176;49.156;7.810;2023-07-31T12:10:53;98734.03;;;22.35;55.09
75594;BME280;64176;49.156;7.810;2023-07-31T12:13:43;98743.75;;;21.99;54.52
75594;BME280;64176;49.156;7.810;2023-07-31T12:16:27;98727.91;;;21.82;54.58
75594;BME280;64176;49.156;7.810;2023-07-31T12:19:12;98730.75;;;21.96;54.79
75594;BME280;64176;49.156;7.810;2023-07-31T12:21:59;98729.91;;;21.76;55.76
75594;BME280;64176;49.156;7.810;2023-07-31T12:24:46;98730.06;;;21.73;56.33
75594;BME280;64176;49.156;7.810;2023-07-31T12:27:32;98726.94;;;21.84;55.59
75594;BME280;64176;49.156;7.810;2023-07-31T12:30:46;98721.63;;;21.67;55.52
75594;BME280;64176;49.156;7.810;2023-07-31T12:33:32;98727.78;;;21.85;56.39
75594;BME280;64176;49.156;7.810;2023-07-31T12:36:18;98718.06;;;21.68;55.94
75594;BME280;64176;49.156;7.810;2023-07-31T12:39:04;98718.88;;;21.87;56.34
75594;BME280;64176;49.156;7.810;2023-07-31T12:41:48;98721.53;;;21.68;55.96
75594;BME280;64176;49.156;7.810;2023-07-31T12:44:32;98720.00;;;21.64;56.21
75594;BME280;64176;49.156;7.810;2023-07-31T12:47:18;98712.53;;;21.55;56.57
75594;BME280;64176;49.156;7.810;2023-07-31T12:50:02;98711.69;;;21.55;57.03
75594;BME280;64176;49.156;7.810;2023-07-31T12:52:49;98706.63;;;21.69;57.35
75594;BME280;64176;49.156;7.810;2023-07-31T12:55:33;98698.22;;;21.25;57.26
75594;BME280;64176;49.156;7.810;2023-07-31T12:58:18;98702.03;;;21.36;57.83
75594;BME280;64176;49.156;7.810;2023-07-31T13:01:02;98690.03;;;21.50;57.08
75594;BME280;64176;49.156;7.810;2023-07-31T13:03:46;98695.50;;;21.45;57.57
75594;BME280;64176;49.156;7.810;2023-07-31T13:06:29;98692.94;;;21.43;57.44
75594;BME280;64176;49.156;7.810;2023-07-31T13:09:13;98684.28;;;21.41;57.65
75594;BME280;64176;49.156;7.810;2023-07-31T13:12:01;98696.56;;;21.41;57.38
75594;BME280;64176;49.156;7.810;2023-07-31T13:14:45;98682.19;;;21.48;57.93
75594;BME280;64176;49.156;7.810;2023-07-31T13:17:29;98684.63;;;21.53;58.11
75594;BME280;64176;49.156;7.810;2023-07-31T13:20:13;98683.78;;;21.52;57.93
75594;BME280;64176;49.156;7.810;2023-07-31T13:22:56;98676.94;;;21.48;58.10
75594;BME280;64176;49.156;7.810;2023-07-31T13:25:40;98671.81;;;21.45;58.38
75594;BME280;64176;49.156;7.810;2023-07-31T13:28:24;98678.59;;;21.51;57.81
75594;BME280;64176;49.156;7.810;2023-07-31T13:31:08;98676.66;;;21.35;58.68
75594;BME280;64176;49.156;7.810;2023-07-31T13:33:52;98678.81;;;21.27;58.59
75594;BME280;64176;49.156;7.810;2023-07-31T13:36:39;98669.66;;;20.98;58.38
75594;BME280;64176;49.156;7.810;2023-07-31T13:39:23;98680.72;;;21.05;58.27
75594;BME280;64176;49.156;7.810;2023-07-31T13:42:08;98690.38;;;21.04;58.50
75594;BME280;64176;49.156;7.810;2023-07-31T13:44:52;98688.44;;;20.89;59.30
75594;BME280;64176;49.156;7.810;2023-07-31T13:47:36;98680.19;;;20.78;59.36
75594;BME280;64176;49.156;7.810;2023-07-31T13:50:21;98682.41;;;20.87;59.37
75594;BME280;64176;49.156;7.810;2023-07-31T13:53:06;98674.38;;;20.90;59.63
75594;BME280;64176;49.156;7.810;2023-07-31T13:55:52;98675.16;;;20.92;59.01
75594;BME280;64176;49.156;7.810;2023-07-31T13:58:36;98656.16;;;21.06;59.02
75594;BME280;64176;49.156;7.810;2023-07-31T14:01:20;98656.41;;;21.00;58.91
75594;BME280;64176;49.156;7.810;2023-07-31T14:04:04;98657.63;;;21.12;58.23
75594;BME280;64176;49.156;7.810;2023-07-31T14:06:48;98649.47;;;21.18;58.16
75594;BME280;64176;49.156;7.810;2023-07-31T14:09:34;98652.94;;;21.37;58.28
75594;BME280;64176;49.156;7.810;2023-07-31T14:12:20;98644.13;;;21.38;57.84
75594;BME280;64176;49.156;7.810;2023-07-31T14:15:08;98648.75;;;21.52;57.69
75594;BME280;64176;49.156;7.810;2023-07-31T14:17:52;98636.19;;;21.57;57.09
75594;BME280;64176;49.156;7.810;2023-07-31T14:20:36;98626.84;;;21.68;56.89
75594;BME280;64176;49.156;7.810;2023-07-31T14:23:20;98619.44;;;21.94;56.82
75594;BME280;64176;49.156;7.810;2023-07-31T14:26:04;98611.19;;;22.01;56.32
75594;BME280;64176;49.156;7.810;2023-07-31T14:28:48;98599.91;;;22.32;56.23
75594;BME280;64176;49.156;7.810;2023-07-31T14:31:32;98609.13;;;22.24;56.35
75594;BME280;64176;49.156;7.810;2023-07-31T14:34:16;98587.88;;;22.11;56.86
75594;BME280;64176;49.156;7.810;2023-07-31T14:37:00;98592.19;;;22.12;56.07
75594;BME280;64176;49.156;7.810;2023-07-31T14:39:44;98575.91;;;22.05;57.13
75594;BME280;64176;49.156;7.810;2023-07-31T14:42:33;98585.09;;;22.14;57.14
75594;BME280;64176;49.156;7.810;2023-07-31T14:45:20;98573.91;;;22.26;56.96